Time;durP1;ratioP1;P1;durP2;ratioP2;P2;SDS_P1;SDS_P2;PMS_P1;PMS_P2;Temp;Humidity;BMP_temperature;BMP_pressure;BME280_temperature;BME280_humidity;BME280_pressure;Samples;Min_cycle;Max_cycle;Signal;HPM_P1;HPM_P2
2023/08/22 00:00:32;;;;;;;12.70;9.00;;;;;;;-145.33;100.00;60416.63;5010040;28;20033;-22
2023/08/22 00:03:01;;;;;;;13.88;9.13;;;;;;;-145.33;100.00;60416.63;5009805;28;20090;-22
2023/08/22 00:05:26;;;;;;;12.65;9.98;;;;;;;-145.33;100.00;60416.63;5009522;28;20033;-26
2023/08/22 00:07:53;;;;;;;12.60;10.25;;;;;;;-145.33;100.00;60416.63;5009407;28;20391;-24
2023/08/22 00:10:18;;;;;;;17.90;10.70;;;;;;;-145.33;100.00;60416.63;5008988;28;20485;-22
2023/08/22 00:12:44;;;;;;;17.92;12.38;;;;;;;-145.33;100.00;60416.63;5009227;28;20640;-23
2023/08/22 00:15:12;;;;;;;16.55;10.48;;;;;;;-145.33;100.00;60416.63;5009162;28;20041;-22
2023/08/22 00:17:38;;;;;;;12.77;8.68;;;;;;;-145.33;100.00;60416.63;5009084;28;20042;-23
2023/08/22 00:20:04;;;;;;;13.13;9.13;;;;;;;-145.33;100.00;60416.63;5009096;28;20049;-23
2023/08/22 00:22:32;;;;;;;13.23;10.00;;;;;;;-145.33;100.00;60416.63;5008990;28;20048;-23
2023/08/22 00:25:00;;;;;;;13.02;9.25;;;;;;;-145.33;100.00;60416.63;5009120;28;20088;-23
2023/08/22 00:27:25;;;;;;;11.70;8.60;;;;;;;-145.33;100.00;60416.63;5009151;28;20038;-30
2023/08/22 00:29:53;;;;;;;12.55;9.30;;;;;;;-145.33;100.00;60416.63;5009132;28;20041;-23
2023/08/22 00:32:18;;;;;;;17.27;10.27;;;;;;;-145.33;100.00;60416.63;5009031;28;20091;-22
2023/08/22 00:34:44;;;;;;;17.23;9.73;;;;;;;-145.33;100.00;60416.63;5008825;28;20038;-22
2023/08/22 00:37:09;;;;;;;16.02;10.32;;;;;;;-145.33;100.00;60416.63;5008920;28;20428;-23
2023/08/22 00:39:35;;;;;;;14.90;10.10;;;;;;;-145.33;100.00;60416.63;5008807;28;20437;-24
2023/08/22 00:42:00;;;;;;;18.92;9.75;;;;;;;-145.33;100.00;60416.63;5008366;28;20531;-26
2023/08/22 00:44:26;;;;;;;17.38;8.93;;;;;;;-145.33;100.00;60416.63;5008715;28;20114;-25
2023/08/22 00:46:54;;;;;;;14.50;9.45;;;;;;;-145.33;100.00;60416.63;5009029;28;20033;-22
2023/08/22 00:49:20;;;;;;;14.75;8.90;;;;;;;-145.33;100.00;60416.63;5008416;28;20041;-22
2023/08/22 00:51:45;;;;;;;12.80;8.30;;;;;;;-145.33;100.00;60416.63;5008456;28;20037;-23
2023/08/22 00:54:12;;;;;;;12.50;8.15;;;;;;;-145.33;100.00;60416.63;5007554;28;20750;-23
2023/08/22 00:56:39;;;;;;;11.63;8.52;;;;;;;-145.33;100.00;60416.63;5008924;28;20113;-23
2023/08/22 00:59:04;;;;;;;11.13;8.30;;;;;;;-145.33;100.00;60416.63;5008695;28;20030;-23
2023/08/22 01:01:33;;;;;;;14.30;8.05;;;;;;;-145.33;100.00;60416.63;5008412;28;20034;-23
2023/08/22 01:03:59;;;;;;;15.57;8.07;;;;;;;-145.33;100.00;60416.63;5008558;28;20057;-24
2023/08/22 01:06:46;;;;;;;17.80;8.45;;;;;;;-145.33;100.00;60416.63;5008198;28;20072;-24
2023/08/22 01:09:18;;;;;;;17.20;10.32;;;;;;;-145.33;100.00;60416.63;5008257;28;20104;-23
2023/08/22 01:11:47;;;;;;;13.65;10.18;;;;;;;-145.33;100.00;60416.63;5008067;28;20065;-23
2023/08/22 01:14:17;;;;;;;15.35;11.35;;;;;;;-145.33;100.00;60416.63;5007827;28;20036;-22
2023/08/22 01:16:43;;;;;;;14.18;10.65;;;;;;;-145.33;100.00;60416.63;5008012;28;20032;-22
2023/08/22 01:19:12;;;;;;;12.80;10.18;;;;;;;-145.33;100.00;60416.63;5008222;28;20122;-23
2023/08/22 01:21:48;;;;;;;16.60;11.65;;;;;;;-145.33;100.00;60416.63;5008136;28;20032;-23
2023/08/22 01:24:14;;;;;;;14.87;10.73;;;;;;;-145.33;100.00;60416.63;5008165;28;20141;-22
2023/08/22 01:26:39;;;;;;;19.88;10.43;;;;;;;-145.33;100.00;60416.63;5007792;28;20708;-23
2023/08/22 01:29:10;;;;;;;15.45;10.82;;;;;;;-145.33;100.00;60416.63;5007981;28;20041;-23
2023/08/22 01:31:45;;;;;;;16.42;11.32;;;;;;;-145.33;100.00;60416.63;5007734;28;20030;-23
2023/08/22 01:34:19;;;;;;;15.77;10.75;;;;;;;-145.33;100.00;60416.63;5007875;28;20080;-24
2023/08/22 01:36:46;;;;;;;17.30;10.93;;;;;;;-145.33;100.00;60416.63;5007468;28;20113;-22
2023/08/22 01:39:16;;;;;;;13.02;10.30;;;;;;;-145.33;100.00;60416.63;5007861;28;20081;-23
2023/08/22 01:41:41;;;;;;;17.15;11.15;;;;;;;-145.33;100.00;60416.63;5007430;28;20435;-22
2023/08/22 01:44:07;;;;;;;13.35;9.90;;;;;;;-145.33;100.00;60416.63;5007387;28;20034;-23
2023/08/22 01:46:33;;;;;;;16.48;11.27;;;;;;;-145.33;100.00;60416.63;5007571;28;20033;-23
2023/08/22 01:48:58;;;;;;;20.98;11.10;;;;;;;-145.33;100.00;60416.63;5007500;28;20026;-23
2023/08/22 01:51:23;;;;;;;16.60;11.07;;;;;;;-145.33;100.00;60416.63;5007930;28;20034;-23
2023/08/22 01:53:49;;;;;;;15.52;11.18;;;;;;;-145.33;100.00;60416.63;5007311;28;20037;-24
2023/08/22 01:56:14;;;;;;;22.25;13.00;;;;;;;-145.33;100.00;60416.63;5007487;28;20037;-23
2023/08/22 01:58:40;;;;;;;19.67;13.65;;;;;;;-145.33;100.00;60416.63;5007453;28;20100;-23
2023/08/22 02:01:09;;;;;;;17.17;12.77;;;;;;;-145.33;100.00;60416.63;5007350;28;20472;-24
2023/08/22 02:03:35;;;;;;;16.85;11.35;;;;;;;-145.33;100.00;60416.63;5007068;28;20045;-25
2023/08/22 02:06:00;;;;;;;15.40;11.15;;;;;;;-145.33;100.00;60416.63;5006066;28;20037;-23
2023/08/22 02:08:25;;;;;;;20.10;12.35;;;;;;;-145.33;100.00;60416.63;5006999;28;20046;-22
2023/08/22 02:10:51;;;;;;;17.10;11.02;;;;;;;-145.33;100.00;60416.63;5007477;28;20056;-22
2023/08/22 02:13:16;;;;;;;13.65;11.23;;;;;;;-145.33;100.00;60416.63;5006918;28;20515;-23
2023/08/22 02:15:42;;;;;;;16.80;11.20;;;;;;;-145.33;100.00;60416.63;5006735;28;20034;-23
2023/08/22 02:18:07;;;;;;;15.27;10.93;;;;;;;-145.33;100.00;60416.63;5006626;28;20061;-22
2023/08/22 02:20:33;;;;;;;16.38;11.20;;;;;;;-145.33;100.00;60416.63;5006679;28;20026;-22
2023/08/22 02:22:58;;;;;;;19.40;11.10;;;;;;;-145.33;100.00;60416.63;5006868;28;20026;-22
2023/08/22 02:25:24;;;;;;;14.13;10.40;;;;;;;-145.33;100.00;60416.63;5006858;28;20030;-24
2023/08/22 02:27:50;;;;;;;17.13;10.95;;;;;;;-145.33;100.00;60416.63;5006920;28;20033;-23
2023/08/22 02:30:15;;;;;;;18.25;11.90;;;;;;;-145.33;100.00;60416.63;5006696;28;20029;-23
2023/08/22 02:32:41;;;;;;;17.75;12.02;;;;;;;-145.33;100.00;60416.63;5006365;28;20022;-23
2023/08/22 02:35:07;;;;;;;15.38;11.00;;;;;;;-145.33;100.00;60416.63;5006961;28;20103;-23
2023/08/22 02:37:32;;;;;;;17.42;11.18;;;;;;;-145.33;100.00;60416.63;5006752;28;20034;-23
2023/08/22 02:39:57;;;;;;;19.33;11.05;;;;;;;-145.33;100.00;60416.63;5006558;28;20437;-23
2023/08/22 02:42:25;;;;;;;12.95;10.10;;;;;;;-145.33;100.00;60416.63;5006619;28;20044;-23
2023/08/22 02:44:51;;;;;;;12.82;10.63;;;;;;;-145.33;100.00;60416.63;5006345;28;20105;-25
2023/08/22 02:47:17;;;;;;;15.10;10.88;;;;;;;-145.33;100.00;60416.63;5006609;28;20580;-23
2023/08/22 02:49:43;;;;;;;20.33;11.45;;;;;;;-145.33;100.00;60416.63;5006414;28;20033;-23
2023/08/22 02:52:08;;;;;;;15.13;10.70;;;;;;;-145.33;100.00;60416.63;5006346;28;20084;-24
2023/08/22 02:54:34;;;;;;;16.08;10.80;;;;;;;-145.33;100.00;60416.63;5006125;28;20030;-23
2023/08/22 02:56:59;;;;;;;15.70;11.05;;;;;;;-145.33;100.00;60416.63;5006181;28;20033;-23
2023/08/22 02:59:24;;;;;;;14.60;10.95;;;;;;;-145.33;100.00;60416.63;5006180;28;20052;-26
2023/08/22 03:01:50;;;;;;;14.07;10.80;;;;;;;-145.33;100.00;60416.63;5006404;28;20034;-23
2023/08/22 03:04:15;;;;;;;17.40;10.70;;;;;;;-145.33;100.00;60416.63;4988263;28;20036;-23
2023/08/22 03:06:41;;;;;;;14.98;10.93;;;;;;;-145.33;100.00;60416.63;5006303;28;20481;-23
2023/08/22 03:09:06;;;;;;;14.98;11.38;;;;;;;-145.33;100.00;60416.63;5005825;28;20428;-23
2023/08/22 03:11:32;;;;;;;15.38;11.13;;;;;;;-145.33;100.00;60416.63;5005896;28;20029;-23
2023/08/22 03:13:57;;;;;;;14.68;11.88;;;;;;;-145.33;100.00;60416.63;5006120;28;20065;-23
2023/08/22 03:16:23;;;;;;;15.38;10.45;;;;;;;-145.33;100.00;60416.63;5005876;28;20030;-25
2023/08/22 03:18:48;;;;;;;17.20;11.40;;;;;;;-145.33;100.00;60416.63;5005797;28;20564;-22
2023/08/22 03:21:14;;;;;;;17.60;11.45;;;;;;;-145.33;100.00;60416.63;5006048;28;20468;-23
2023/08/22 03:23:39;;;;;;;14.02;10.82;;;;;;;-145.33;100.00;60416.63;5005879;28;20099;-23
2023/08/22 03:26:10;;;;;;;15.77;11.27;;;;;;;-145.33;100.00;60416.63;5005853;28;20504;-22
2023/08/22 03:28:36;;;;;;;15.43;11.43;;;;;;;-145.33;100.00;60416.63;5005826;28;20030;-25
2023/08/22 03:31:04;;;;;;;18.42;11.25;;;;;;;-145.33;100.00;60416.63;5005782;28;20069;-23
2023/08/22 03:33:31;;;;;;;13.93;10.30;;;;;;;-145.33;100.00;60416.63;5006124;28;20100;-24
2023/08/22 03:35:58;;;;;;;17.95;11.88;;;;;;;-145.33;100.00;60416.63;5005372;28;20540;-28
2023/08/22 03:38:24;;;;;;;15.77;11.48;;;;;;;-145.33;100.00;60416.63;5005904;28;20091;-23
2023/08/22 03:40:51;;;;;;;16.70;11.85;;;;;;;-145.33;100.00;60416.63;5005736;28;20505;-25
2023/08/22 03:43:18;;;;;;;16.75;11.48;;;;;;;-145.33;100.00;60416.63;5005892;28;20069;-23
2023/08/22 03:45:44;;;;;;;13.55;10.65;;;;;;;-145.33;100.00;60416.63;5005889;28;20084;-23
2023/08/22 03:48:10;;;;;;;14.63;11.13;;;;;;;-145.33;100.00;60416.63;5005589;28;20022;-22
2023/08/22 03:50:38;;;;;;;14.68;10.60;;;;;;;-145.33;100.00;60416.63;5005891;28;20025;-23
2023/08/22 03:53:03;;;;;;;17.38;10.88;;;;;;;-145.33;100.00;60416.63;5005651;28;20041;-22
2023/08/22 03:55:29;;;;;;;14.35;10.77;;;;;;;-145.33;100.00;60416.63;5005942;28;20025;-22
2023/08/22 03:57:56;;;;;;;14.48;10.75;;;;;;;-145.33;100.00;60416.63;5005564;28;20029;-25
2023/08/22 04:00:22;;;;;;;;;;;;;;;-145.33;100.00;60416.63;5006106;28;20465;-23
2023/08/22 04:02:53;;;;;;;15.52;11.23;;;;;;;-145.33;100.00;60416.63;5005528;28;20392;-23
2023/08/22 04:05:18;;;;;;;15.23;12.20;;;;;;;-145.33;100.00;60416.63;5005699;28;20014;-23
2023/08/22 04:07:44;;;;;;;26.00;13.98;;;;;;;-145.33;100.00;60416.63;5005621;28;20107;-25
2023/08/22 04:10:09;;;;;;;16.95;11.60;;;;;;;-145.33;100.00;60416.63;5005293;28;20061;-23
2023/08/22 04:12:35;;;;;;;16.33;11.80;;;;;;;-145.33;100.00;60416.63;5005270;28;20488;-23
2023/08/22 04:15:00;;;;;;;15.75;11.05;;;;;;;-145.33;100.00;60416.63;5005250;28;20033;-23
2023/08/22 04:17:28;;;;;;;18.35;10.98;;;;;;;-145.33;100.00;60416.63;5005523;28;20056;-25
2023/08/22 04:19:53;;;;;;;14.35;11.38;;;;;;;-145.33;100.00;60416.63;5005314;28;20072;-23
2023/08/22 04:22:18;;;;;;;17.52;11.82;;;;;;;-145.33;100.00;60416.63;5005451;28;20053;-24
2023/08/22 04:24:44;;;;;;;15.13;11.05;;;;;;;-145.33;100.00;60416.63;5005285;28;20030;-23
2023/08/22 04:27:12;;;;;;;17.38;11.90;;;;;;;-145.33;100.00;60416.63;5005260;28;20022;-23
2023/08/22 04:29:37;;;;;;;;;;;;;;;-145.33;100.00;60416.63;5007096;28;20018;-23
2023/08/22 04:32:03;;;;;;;16.83;12.17;;;;;;;-145.33;100.00;60416.63;5008976;28;19920;-23
2023/08/22 04:34:29;;;;;;;23.83;13.10;;;;;;;-145.33;100.00;60416.63;5008795;28;20293;-24
2023/08/22 04:36:55;;;;;;;16.90;11.23;;;;;;;-145.33;100.00;60416.63;5008817;28;20022;-23
2023/08/22 04:39:20;;;;;;;18.70;13.05;;;;;;;-145.33;100.00;60416.63;5008857;28;20026;-23
2023/08/22 04:41:46;;;;;;;17.38;12.00;;;;;;;-145.33;100.00;60416.63;5008576;28;20429;-23
2023/08/22 04:44:11;;;;;;;19.95;12.77;;;;;;;-145.33;100.00;60416.63;5008583;28;20472;-23
2023/08/22 04:46:36;;;;;;;18.77;12.60;;;;;;;-145.33;100.00;60416.63;5008626;28;20030;-23
2023/08/22 04:49:02;;;;;;;18.50;12.70;;;;;;;-145.33;100.00;60416.63;5008292;28;20087;-23
2023/08/22 04:51:27;;;;;;;16.65;12.18;;;;;;;-145.33;100.00;60416.63;5008850;28;20041;-23
2023/08/22 04:53:53;;;;;;;15.70;11.70;;;;;;;-145.33;100.00;60416.63;5009031;28;20033;-23
2023/08/22 04:56:19;;;;;;;16.45;12.00;;;;;;;-145.33;100.00;60416.63;5008307;28;20053;-23
2023/08/22 04:58:44;;;;;;;14.23;11.38;;;;;;;-145.33;100.00;60416.63;5008452;28;20510;-23
2023/08/22 05:01:10;;;;;;;15.02;11.18;;;;;;;-145.33;100.00;60416.63;5008274;28;20030;-23
2023/08/22 05:03:35;;;;;;;13.18;11.50;;;;;;;-145.33;100.00;60416.63;5008421;28;20026;-22
2023/08/22 05:06:01;;;;;;;18.48;12.48;;;;;;;-145.33;100.00;60416.63;5008393;28;20029;-23
2023/08/22 05:08:27;;;;;;;13.82;11.18;;;;;;;-145.33;100.00;60416.63;5008077;28;20038;-25
2023/08/22 05:10:52;;;;;;;13.30;10.70;;;;;;;-145.33;100.00;60416.63;5008231;28;20034;-23
2023/08/22 05:13:17;;;;;;;15.68;11.13;;;;;;;-145.33;100.00;60416.63;5007803;28;20088;-23
2023/08/22 05:15:43;;;;;;;13.93;10.35;;;;;;;-145.33;100.00;60416.63;5008182;28;20057;-23
2023/08/22 05:18:09;;;;;;;14.05;10.93;;;;;;;-145.33;100.00;60416.63;5007986;28;20091;-23
2023/08/22 05:20:34;;;;;;;14.52;11.30;;;;;;;-145.33;100.00;60416.63;5007812;28;20034;-25
2023/08/22 05:23:00;;;;;;;16.70;11.57;;;;;;;-145.33;100.00;60416.63;5008331;28;20026;-23
2023/08/22 05:25:25;;;;;;;14.70;11.43;;;;;;;-145.33;100.00;60416.63;5007602;28;20029;-26
2023/08/22 05:27:53;;;;;;;17.45;11.93;;;;;;;-145.33;100.00;60416.63;5008017;28;20032;-24
2023/08/22 05:30:19;;;;;;;18.30;11.80;;;;;;;-145.33;100.00;60416.63;5007893;28;20535;-23
2023/08/22 05:32:44;;;;;;;16.00;11.70;;;;;;;-145.33;100.00;60416.63;5007541;28;20026;-23
2023/08/22 05:35:10;;;;;;;18.05;11.60;;;;;;;-145.33;100.00;60416.63;5008120;28;20026;-23
2023/08/22 05:37:35;;;;;;;14.88;11.35;;;;;;;-145.33;100.00;60416.63;5007457;28;20023;-22
2023/08/22 05:40:01;;;;;;;15.80;11.05;;;;;;;-145.33;100.00;60416.63;5007294;28;20479;-23
2023/08/22 05:42:26;;;;;;;15.85;10.93;;;;;;;-145.33;100.00;60416.63;5022543;28;20021;-23
2023/08/22 05:44:52;;;;;;;14.65;9.88;;;;;;;-145.33;100.00;60416.63;5007851;28;20512;-26
2023/08/22 05:47:17;;;;;;;12.45;9.80;;;;;;;-145.33;100.00;60416.63;5007295;28;20038;-23
2023/08/22 05:49:43;;;;;;;14.40;9.70;;;;;;;-145.33;100.00;60416.63;5007936;28;20033;-23
2023/08/22 05:52:09;;;;;;;14.82;10.52;;;;;;;-145.33;100.00;60416.63;5007293;28;20613;-23
2023/08/22 05:54:34;;;;;;;14.80;10.57;;;;;;;-145.33;100.00;60416.63;5007317;28;20105;-23
2023/08/22 05:57:00;;;;;;;16.38;9.50;;;;;;;-145.33;100.00;60416.63;5007127;28;20497;-23
2023/08/22 05:59:25;;;;;;;16.33;9.63;;;;;;;-145.33;100.00;60416.63;5007330;28;20026;-30
2023/08/22 06:01:51;;;;;;;13.57;9.05;;;;;;;-145.33;100.00;60416.63;5007593;28;20034;-23
2023/08/22 06:04:17;;;;;;;11.07;9.20;;;;;;;-145.33;100.00;60416.63;5007243;28;20026;-22
2023/08/22 06:06:43;;;;;;;13.35;9.20;;;;;;;-145.33;100.00;60416.63;5007349;28;20036;-23
2023/08/22 06:09:09;;;;;;;14.05;9.18;;;;;;;-145.33;100.00;60416.63;5006672;28;20135;-25
2023/08/22 06:11:35;;;;;;;11.05;9.05;;;;;;;-145.33;100.00;60416.63;5007532;28;20033;-22
2023/08/22 06:14:00;;;;;;;12.98;9.40;;;;;;;-145.33;100.00;60416.63;5006957;28;20034;-23
2023/08/22 06:16:26;;;;;;;14.30;9.40;;;;;;;-145.33;100.00;60416.63;5006777;28;20022;-23
2023/08/22 06:18:51;;;;;;;13.07;8.80;;;;;;;-145.33;100.00;60416.63;5007329;28;20037;-23
2023/08/22 06:21:16;;;;;;;12.05;9.40;;;;;;;-145.33;100.00;60416.63;5006862;28;20095;-22
2023/08/22 06:23:44;;;;;;;12.70;9.38;;;;;;;-145.33;100.00;60416.63;5006866;28;20483;-22
2023/08/22 06:26:11;;;;;;;13.65;9.48;;;;;;;-145.33;100.00;60416.63;4996707;28;20033;-23
2023/08/22 06:28:36;;;;;;;13.82;9.93;;;;;;;-145.33;100.00;60416.63;4987283;28;20040;-23
2023/08/22 06:31:02;;;;;;;12.77;9.63;;;;;;;-145.33;100.00;60416.63;4987310;28;20121;-23
2023/08/22 06:33:30;;;;;;;12.63;9.00;;;;;;;-145.33;100.00;60416.63;4987074;28;20125;-23
2023/08/22 06:35:55;;;;;;;;;;;;;;;-145.33;100.00;60416.63;4987785;28;20038;-25
2023/08/22 06:38:21;;;;;;;12.43;8.27;;;;;;;-145.33;100.00;60416.63;4987080;28;19913;-24
2023/08/22 06:40:46;;;;;;;10.35;7.95;;;;;;;-145.33;100.00;60416.63;4986894;28;20289;-22
2023/08/22 06:43:17;;;;;;;10.63;8.15;;;;;;;-145.33;100.00;60416.63;4987378;28;20044;-23
2023/08/22 06:45:43;;;;;;;13.20;8.65;;;;;;;-145.33;100.00;60416.63;4986330;28;20038;-23
2023/08/22 06:48:09;;;;;;;10.52;8.57;;;;;;;-145.33;100.00;60416.63;4986462;28;20255;-23
2023/08/22 06:50:36;;;;;;;12.90;8.60;;;;;;;-145.33;100.00;60416.63;4986377;28;20034;-26
2023/08/22 06:53:02;;;;;;;11.63;8.40;;;;;;;-145.33;100.00;60416.63;4985974;28;20061;-23
2023/08/22 06:55:28;;;;;;;13.07;7.68;;;;;;;-145.33;100.00;60416.63;4987149;28;20485;-22
2023/08/22 06:57:53;;;;;;;13.05;7.82;;;;;;;-145.33;100.00;60416.63;4986121;28;20037;-23
2023/08/22 07:00:19;;;;;;;13.13;8.35;;;;;;;-145.33;100.00;60416.63;4986285;28;20030;-23
2023/08/22 07:02:47;;;;;;;15.30;8.43;;;;;;;-145.33;100.00;60416.63;4986746;28;20779;-23
2023/08/22 07:05:15;;;;;;;11.48;8.80;;;;;;;-145.33;100.00;60416.63;4985991;28;20030;-23
2023/08/22 07:07:40;;;;;;;14.75;8.77;;;;;;;-145.33;100.00;60416.63;4986235;28;20042;-23
2023/08/22 07:10:08;;;;;;;9.75;8.05;;;;;;;-145.33;100.00;60416.63;4986580;28;20036;-24
2023/08/22 07:12:34;;;;;;;11.13;8.32;;;;;;;-145.33;100.00;60416.63;4986400;28;20049;-23
2023/08/22 07:15:00;;;;;;;14.10;8.10;;;;;;;-145.33;100.00;60416.63;4986688;28;20753;-23
2023/08/22 07:17:26;;;;;;;9.65;7.72;;;;;;;-145.33;100.00;60416.63;4986645;28;20026;-25
2023/08/22 07:19:51;;;;;;;13.05;7.72;;;;;;;-145.33;100.00;60416.63;4986462;28;20034;-23
2023/08/22 07:22:17;;;;;;;10.45;7.57;;;;;;;-145.33;100.00;60416.63;4986495;28;20065;-23
2023/08/22 07:24:42;;;;;;;11.02;7.38;;;;;;;-145.33;100.00;60416.63;4986207;28;20026;-23
2023/08/22 07:27:11;;;;;;;11.25;7.90;;;;;;;-145.33;100.00;60416.63;4986374;28;20050;-23
2023/08/22 07:29:36;;;;;;;13.48;7.05;;;;;;;-145.33;100.00;60416.63;4986308;28;20027;-23
2023/08/22 07:32:02;;;;;;;12.25;8.20;;;;;;;-145.33;100.00;60416.63;4986020;28;20049;-23
2023/08/22 07:34:28;;;;;;;9.68;7.47;;;;;;;-145.33;100.00;60416.63;4986329;28;20039;-28
2023/08/22 07:36:53;;;;;;;11.82;8.05;;;;;;;-145.33;100.00;60416.63;4986229;28;20034;-23
2023/08/22 07:39:20;;;;;;;9.35;7.43;;;;;;;-145.33;100.00;60416.63;4986363;28;20026;-23
2023/08/22 07:41:45;;;;;;;11.18;7.40;;;;;;;-145.33;100.00;60416.63;4986021;28;20057;-23
2023/08/22 07:44:11;;;;;;;11.52;7.68;;;;;;;-145.33;100.00;60416.63;4985966;28;20066;-23
2023/08/22 07:46:38;;;;;;;13.57;7.70;;;;;;;-145.33;100.00;60416.63;4985930;28;20418;-23
2023/08/22 07:49:07;;;;;;;9.85;7.30;;;;;;;-145.33;100.00;60416.63;4985911;28;20030;-23
2023/08/22 07:51:36;;;;;;;8.90;6.88;;;;;;;-145.33;100.00;60416.63;4986293;28;20038;-22
2023/08/22 07:54:03;;;;;;;9.60;7.03;;;;;;;-145.33;100.00;60416.63;4985966;28;20058;-23
2023/08/22 07:56:28;;;;;;;12.35;7.20;;;;;;;-145.33;100.00;60416.63;4986443;28;20498;-25
2023/08/22 07:58:54;;;;;;;12.05;7.10;;;;;;;-145.33;100.00;60416.63;4986195;28;20054;-23
2023/08/22 08:01:19;;;;;;;10.25;6.88;;;;;;;-145.33;100.00;60416.63;4985946;28;20034;-22
2023/08/22 08:03:45;;;;;;;9.98;7.10;;;;;;;-145.33;100.00;60416.63;4986196;28;20069;-23
2023/08/22 08:06:11;;;;;;;9.90;7.15;;;;;;;-145.33;100.00;60416.63;4989757;28;20037;-23
2023/08/22 08:08:36;;;;;;;8.27;6.72;;;;;;;-145.33;100.00;60416.63;4989765;28;20069;-24
2023/08/22 08:11:04;;;;;;;12.68;6.90;;;;;;;-145.33;100.00;60416.63;4990031;28;20458;-23
2023/08/22 08:13:29;;;;;;;9.80;7.28;;;;;;;-145.33;100.00;60416.63;4989653;28;20030;-23
2023/08/22 08:15:55;;;;;;;8.25;6.45;;;;;;;-145.33;100.00;60416.63;4989923;28;20037;-23
2023/08/22 08:18:21;;;;;;;12.52;6.95;;;;;;;-145.33;100.00;60416.63;4989692;28;20034;-23
2023/08/22 08:20:46;;;;;;;8.98;6.70;;;;;;;-145.33;100.00;60416.63;4989712;28;20487;-22
2023/08/22 08:23:12;;;;;;;9.07;6.60;;;;;;;-145.33;100.00;60416.63;4989780;28;20509;-22
2023/08/22 08:25:37;;;;;;;9.35;6.55;;;;;;;-145.33;100.00;60416.63;4989513;28;20502;-23
2023/08/22 08:28:07;;;;;;;9.57;6.95;;;;;;;-145.33;100.00;60416.63;4989701;28;20352;-23
2023/08/22 08:30:33;;;;;;;9.73;7.10;;;;;;;-145.33;100.00;60416.63;4989064;28;20662;-24
2023/08/22 08:32:58;;;;;;;11.98;6.65;;;;;;;-145.33;100.00;60416.63;4988924;28;20026;-28
2023/08/22 08:35:24;;;;;;;12.13;6.55;;;;;;;-145.33;100.00;60416.63;4989447;28;20018;-23
2023/08/22 08:37:51;;;;;;;8.88;6.57;;;;;;;-145.33;100.00;60416.63;4989327;28;20038;-23
2023/08/22 08:40:19;;;;;;;11.82;7.18;;;;;;;-145.33;100.00;60416.63;4989412;28;20026;-22
2023/08/22 08:42:45;;;;;;;9.50;6.43;;;;;;;-145.33;100.00;60416.63;4988849;28;20048;-23
2023/08/22 08:45:12;;;;;;;10.88;6.70;;;;;;;-145.33;100.00;60416.63;4981760;28;20452;-23
2023/08/22 08:47:40;;;;;;;10.50;6.28;;;;;;;-145.33;100.00;60416.63;4989360;28;20030;-23
2023/08/22 08:50:06;;;;;;;9.13;6.07;;;;;;;-145.33;100.00;60416.63;4988860;28;20557;-23
2023/08/22 08:52:32;;;;;;;12.77;6.47;;;;;;;-145.33;100.00;60416.63;4989120;28;20064;-22
2023/08/22 08:54:59;;;;;;;9.23;6.43;;;;;;;-145.33;100.00;60416.63;4989121;28;20030;-27
2023/08/22 08:57:26;;;;;;;8.77;6.07;;;;;;;-145.33;100.00;60416.63;4988801;28;20420;-23
2023/08/22 08:59:52;;;;;;;;;;;;;;;-145.33;100.00;60416.63;4989299;28;20026;-23
2023/08/22 09:02:19;;;;;;;13.73;6.57;;;;;;;-145.33;100.00;60416.63;4988755;28;19920;-24
2023/08/22 09:04:46;;;;;;;9.15;6.18;;;;;;;-145.33;100.00;60416.63;4988586;28;20019;-23
2023/08/22 09:07:13;;;;;;;8.13;6.10;;;;;;;-145.33;100.00;60416.63;4985435;28;20893;-23
2023/08/22 09:09:39;;;;;;;9.10;6.35;;;;;;;-145.33;100.00;60416.63;4969324;28;20116;-23
2023/08/22 09:12:10;;;;;;;11.45;6.38;;;;;;;-145.33;100.00;60416.63;4969239;28;20470;-23
2023/08/22 09:14:47;;;;;;;9.25;6.18;;;;;;;-145.33;100.00;60416.63;4968834;28;20042;-23
2023/08/22 09:17:17;;;;;;;10.48;5.90;;;;;;;-145.33;100.00;60416.63;4969497;28;20027;-24
2023/08/22 09:19:43;;;;;;;8.63;5.97;;;;;;;-145.33;100.00;60416.63;4968880;28;20026;-22
2023/08/22 09:22:14;;;;;;;9.80;6.18;;;;;;;-145.33;100.00;60416.63;4968916;28;20066;-25
2023/08/22 09:24:50;;;;;;;8.52;6.07;;;;;;;-145.33;100.00;60416.63;4968914;28;20453;-22
2023/08/22 09:27:16;;;;;;;;;;;;;;;-145.33;100.00;60416.63;4969551;28;20046;-22
2023/08/22 09:29:42;;;;;;;10.13;6.13;;;;;;;-145.33;100.00;60416.63;4968995;28;20349;-22
2023/08/22 09:32:07;;;;;;;11.18;6.65;;;;;;;-145.33;100.00;60416.63;4968357;28;20034;-26
2023/08/22 09:34:37;;;;;;;13.45;6.28;;;;;;;-145.33;100.00;60416.63;4968560;28;20031;-22
2023/08/22 09:37:02;;;;;;;10.35;6.28;;;;;;;-145.33;100.00;60416.63;4969119;28;20027;-23
2023/08/22 09:39:29;;;;;;;8.57;6.07;;;;;;;-145.33;100.00;60416.63;4968419;28;20122;-23
2023/08/22 09:41:59;;;;;;;9.27;6.07;;;;;;;-145.33;100.00;60416.63;4968431;28;20037;-22
2023/08/22 09:44:26;;;;;;;10.98;6.47;;;;;;;-145.33;100.00;60416.63;4968753;28;20027;-25
2023/08/22 09:46:53;;;;;;;9.30;5.78;;;;;;;-145.33;100.00;60416.63;4968602;28;20043;-24
2023/08/22 09:49:19;;;;;;;8.90;6.25;;;;;;;-145.33;100.00;60416.63;4968889;28;20115;-22
2023/08/22 09:51:47;;;;;;;7.78;5.95;;;;;;;-145.33;100.00;60416.63;4968348;28;20034;-23
2023/08/22 09:54:14;;;;;;;11.23;6.97;;;;;;;-145.33;100.00;60416.63;4968390;28;20173;-22
2023/08/22 09:56:40;;;;;;;8.52;6.00;;;;;;;-145.33;100.00;60416.63;4968363;28;20105;-23
2023/08/22 09:59:06;;;;;;;11.53;7.20;;;;;;;-145.33;100.00;60416.63;4968211;28;20041;-23
2023/08/22 10:01:34;;;;;;;8.95;6.47;;;;;;;-145.33;100.00;60416.63;4968306;28;20262;-23
2023/08/22 10:04:04;;;;;;;8.00;5.90;;;;;;;-145.33;100.00;60416.63;4968277;28;20113;-24
2023/08/22 10:06:34;;;;;;;8.52;6.28;;;;;;;-145.33;100.00;60416.63;4968120;28;20037;-22
2023/08/22 10:09:11;;;;;;;8.80;6.28;;;;;;;-145.33;100.00;60416.63;4985517;28;20097;-23
2023/08/22 10:12:01;;;;;;;8.77;6.13;;;;;;;-145.33;100.00;60416.63;4987174;28;20061;-22
2023/08/22 10:14:56;;;;;;;9.18;6.70;;;;;;;-145.33;100.00;60416.63;4988056;28;20037;-22
2023/08/22 10:17:26;;;;;;;9.38;6.25;;;;;;;-145.33;100.00;60416.63;4986459;28;20050;-23
2023/08/22 10:19:51;;;;;;;9.23;6.20;;;;;;;-145.33;100.00;60416.63;4987539;28;20498;-24
2023/08/22 10:22:17;;;;;;;8.20;6.20;;;;;;;-145.33;100.00;60416.63;4987247;28;20133;-27
2023/08/22 10:24:46;;;;;;;8.32;6.45;;;;;;;-145.33;100.00;60416.63;4987567;28;20022;-23
2023/08/22 10:27:16;;;;;;;10.63;7.43;;;;;;;-145.33;100.00;60416.63;4986491;28;20042;-23
2023/08/22 10:29:45;;;;;;;10.18;5.70;;;;;;;-145.33;100.00;60416.63;4986410;28;20034;-23
2023/08/22 10:32:11;;;;;;;6.68;5.80;;;;;;;-145.33;100.00;60416.63;4986422;28;20886;-23
2023/08/22 10:34:39;;;;;;;12.98;6.30;;;;;;;-145.33;100.00;60416.63;4986805;28;20032;-23
2023/08/22 10:37:17;;;;;;;8.05;5.70;;;;;;;-145.33;100.00;60416.63;4986942;28;20126;-23
2023/08/22 10:39:45;;;;;;;10.48;5.55;;;;;;;-145.33;100.00;60416.63;4986761;28;20042;-23
2023/08/22 10:42:15;;;;;;;10.32;6.22;;;;;;;-145.33;100.00;60416.63;4986554;28;20516;-23
2023/08/22 10:44:42;;;;;;;11.70;7.05;;;;;;;-145.33;100.00;60416.63;4987142;28;20026;-25
2023/08/22 10:47:15;;;;;;;13.93;6.40;;;;;;;-145.33;100.00;60416.63;4987026;28;20031;-24
2023/08/22 10:49:42;;;;;;;9.63;6.13;;;;;;;-145.33;100.00;60416.63;4987231;28;20038;-23
2023/08/22 10:52:09;;;;;;;10.68;5.80;;;;;;;-145.33;100.00;60416.63;4987179;28;20030;-23
2023/08/22 10:54:56;;;;;;;12.85;6.13;;;;;;;-145.33;100.00;60416.63;4986495;28;20027;-22
2023/08/22 10:57:21;;;;;;;9.20;5.60;;;;;;;-145.33;100.00;60416.63;4986296;28;20038;-23
2023/08/22 10:59:59;;;;;;;8.40;6.00;;;;;;;-145.33;100.00;60416.63;4986620;28;20026;-24